Time;durP1;ratioP1;P1;durP2;ratioP2;P2;SDS_P1;SDS_P2;PMS_P1;PMS_P2;Temp;Humidity;BMP_temperature;BMP_pressure;BME280_temperature;BME280_humidity;BME280_pressure;Samples;Min_cycle;Max_cycle;Signal;HPM_P1;HPM_P2
2023/06/08 00:01:19;;;;;;;4.60;4.30;;;21.90;42.50;;;;;;20826;6812;116837;-76
2023/06/08 00:03:46;;;;;;;4.90;4.50;;;21.80;42.50;;;;;;20604;6812;307007;-77
2023/06/08 00:06:13;;;;;;;4.10;3.90;;;21.80;42.50;;;;;;20798;6812;119089;-76
2023/06/08 00:08:37;;;;;;;4.60;4.30;;;21.70;42.40;;;;;;20605;6812;340897;-76
2023/06/08 00:11:04;;;;;;;4.20;3.90;;;21.80;42.40;;;;;;20815;6812;117089;-76
2023/06/08 00:13:30;;;;;;;4.17;3.87;;;21.70;42.30;;;;;;20609;6812;277623;-76
2023/06/08 00:15:55;;;;;;;3.80;3.60;;;21.80;42.40;;;;;;20603;6812;335516;-76
2023/06/08 00:18:21;;;;;;;4.50;4.10;;;22.00;41.90;;;;;;20800;6812;116975;-76
2023/06/08 00:20:47;;;;;;;4.40;4.10;;;22.00;42.00;;;;;;20610;6812;298138;-76
2023/06/08 00:23:12;;;;;;;5.00;4.00;;;22.10;42.00;;;;;;20609;6812;285756;-76
2023/06/08 00:25:38;;;;;;;4.28;3.97;;;22.50;40.90;;;;;;20587;6812;342104;-76
2023/06/08 00:28:04;;;;;;;4.90;3.80;;;22.50;40.90;;;;;;20563;6812;305065;-76
2023/06/08 00:30:30;;;;;;;3.87;3.57;;;22.60;41.00;;;;;;20816;6812;117085;-76
2023/06/08 00:32:55;;;;;;;3.85;3.55;;;22.40;41.10;;;;;;20781;6812;118077;-76
2023/06/08 00:35:21;;;;;;;3.93;3.73;;;22.00;41.70;;;;;;20813;6812;118216;-77
2023/06/08 00:37:46;;;;;;;4.30;4.10;;;21.70;42.00;;;;;;20824;6812;117028;-76
2023/06/08 00:40:12;;;;;;;3.50;3.37;;;21.40;42.40;;;;;;20804;6812;118910;-76
2023/06/08 00:42:38;;;;;;;4.57;4.18;;;21.30;42.80;;;;;;20605;6812;277929;-78
2023/06/08 00:45:04;;;;;;;4.65;4.30;;;21.80;42.40;;;;;;20609;6810;335846;-76
2023/06/08 00:47:30;;;;;;;4.60;4.30;;;22.10;42.20;;;;;;20593;6811;340920;-76
2023/06/08 00:49:57;;;;;;;4.23;4.00;;;22.10;42.20;;;;;;20814;6812;121279;-76
2023/06/08 00:52:21;;;;;;;4.18;3.80;;;21.90;42.10;;;;;;20819;6812;118789;-76
2023/06/08 00:54:48;;;;;;;4.07;3.87;;;21.60;42.40;;;;;;20824;6812;119773;-76
2023/06/08 00:57:12;;;;;;;3.60;3.33;;;21.30;42.80;;;;;;20833;6812;117330;-76
2023/06/08 00:59:38;;;;;;;4.12;3.92;;;21.00;43.00;;;;;;20614;6812;307179;-76
2023/06/08 01:02:04;;;;;;;4.40;4.07;;;21.20;43.20;;;;;;20584;6812;277853;-76
2023/06/08 01:04:31;;;;;;;4.20;4.00;;;21.80;42.10;;;;;;20605;6812;306991;-75
2023/06/08 01:07:00;;;;;;;4.37;3.97;;;21.80;42.10;;;;;;20809;6812;117926;-76
2023/06/08 01:09:24;;;;;;;4.20;3.90;;;21.70;42.10;;;;;;20798;6812;116970;-76
2023/06/08 01:12:00;;;;;;;3.93;3.43;;;21.40;42.30;;;;;;20787;6812;118079;-80
2023/06/08 01:14:42;;;;;;;3.95;3.75;;;21.00;42.60;;;;;;20556;6812;335982;-77
2023/06/08 01:17:09;;;;;;;4.20;3.90;;;21.10;42.90;;;;;;20607;6812;335989;-77
2023/06/08 01:19:52;;;;;;;4.20;3.80;;;21.50;42.40;;;;;;20812;6812;116951;-77
2023/06/08 01:22:28;;;;;;;4.40;4.13;;;21.30;42.40;;;;;;20578;6812;277085;-77
2023/06/08 01:24:56;;;;;;;4.33;3.93;;;21.30;42.00;;;;;;20577;6812;285878;-75
2023/06/08 01:27:19;;;;;;;4.20;3.90;;;21.50;42.10;;;;;;20607;6812;277057;-75
2023/06/08 01:29:45;;;;;;;3.73;3.53;;;21.60;41.80;;;;;;20611;6812;307497;-75
2023/06/08 01:32:10;;;;;;;3.80;3.60;;;21.70;41.60;;;;;;20801;6812;117873;-78
2023/06/08 01:34:36;;;;;;;4.00;3.80;;;21.40;41.90;;;;;;20609;6812;302633;-75
2023/06/08 01:37:17;;;;;;;3.42;3.30;;;21.30;42.10;;;;;;20820;6812;117072;-77
2023/06/08 01:39:48;;;;;;;3.80;3.60;;;21.10;42.20;;;;;;20808;6812;117065;-75
2023/06/08 01:42:12;;;;;;;3.90;3.70;;;20.70;42.60;;;;;;20795;6812;119970;-77
2023/06/08 01:44:37;;;;;;;3.85;3.62;;;20.40;42.90;;;;;;20793;6812;117177;-77
2023/06/08 01:47:03;;;;;;;3.60;3.35;;;20.20;43.10;;;;;;20804;6812;117308;-77
2023/06/08 01:49:30;;;;;;;3.80;3.53;;;20.10;43.30;;;;;;20788;6812;118084;-78
2023/06/08 01:51:55;;;;;;;3.77;3.57;;;20.00;43.40;;;;;;20830;6812;117042;-77
2023/06/08 01:54:21;;;;;;;3.80;3.60;;;19.80;43.60;;;;;;20815;6810;120859;-77
2023/06/08 01:56:46;;;;;;;3.78;3.58;;;19.80;43.80;;;;;;20829;6811;117088;-77
2023/06/08 01:59:12;;;;;;;3.90;3.70;;;19.70;43.80;;;;;;20624;6811;311208;-77
2023/06/08 02:01:38;;;;;;;3.70;3.50;;;20.00;43.30;;;;;;20820;6812;117475;-77
2023/06/08 02:04:04;;;;;;;3.20;3.10;;;20.00;43.50;;;;;;20803;6812;117361;-77
2023/06/08 02:06:29;;;;;;;3.77;3.57;;;19.90;43.70;;;;;;20615;6812;307740;-77
2023/06/08 02:08:55;;;;;;;4.00;3.80;;;20.10;44.40;;;;;;20605;6812;280325;-77
2023/06/08 02:11:22;;;;;;;3.67;3.47;;;20.50;44.70;;;;;;20819;6812;118599;-77
2023/06/08 02:13:46;;;;;;;4.10;3.80;;;20.40;44.30;;;;;;20605;6812;277709;-77
2023/06/08 02:16:12;;;;;;;4.30;4.10;;;20.50;44.60;;;;;;20805;6812;118228;-77
2023/06/08 02:18:41;;;;;;;3.70;3.50;;;20.30;44.50;;;;;;20830;6812;117618;-77
2023/06/08 02:21:07;;;;;;;4.43;4.20;;;20.00;44.80;;;;;;20601;6812;306955;-76
2023/06/08 02:23:33;;;;;;;4.53;4.33;;;20.50;45.90;;;;;;20610;6812;277453;-76
2023/06/08 02:25:59;;;;;;;4.50;4.20;;;20.40;45.80;;;;;;20606;6812;312241;-77
2023/06/08 02:28:26;;;;;;;4.65;4.30;;;20.70;45.50;;;;;;20808;6812;120642;-76
2023/06/08 02:30:51;;;;;;;4.13;3.83;;;20.40;45.30;;;;;;20813;6812;117630;-77
2023/06/08 02:33:17;;;;;;;4.47;4.20;;;20.10;45.70;;;;;;20820;6812;117483;-76
2023/06/08 02:35:42;;;;;;;4.80;4.60;;;19.80;46.20;;;;;;20612;6812;280152;-76
2023/06/08 02:38:09;;;;;;;5.22;4.82;;;20.10;46.90;;;;;;20580;6812;336498;-77
2023/06/08 02:40:35;;;;;;;4.73;4.53;;;20.10;46.90;;;;;;20803;6812;121002;-76
2023/06/08 02:43:00;;;;;;;5.05;4.75;;;19.90;46.60;;;;;;20606;6812;336391;-76
2023/06/08 02:45:26;;;;;;;4.87;4.57;;;19.80;46.90;;;;;;20818;6812;117346;-77
2023/06/08 02:47:52;;;;;;;5.50;5.10;;;19.80;46.90;;;;;;20611;6812;311427;-77
2023/06/08 02:50:17;;;;;;;4.93;4.73;;;19.90;47.30;;;;;;20803;6812;117220;-77
2023/06/08 02:52:43;;;;;;;5.28;4.97;;;19.70;47.10;;;;;;20604;6812;310606;-77
2023/06/08 02:55:09;;;;;;;5.10;4.80;;;19.80;47.40;;;;;;20611;6812;307536;-77
2023/06/08 02:57:36;;;;;;;5.25;4.72;;;20.00;47.10;;;;;;20811;6812;117250;-77
2023/06/08 03:00:00;;;;;;;4.90;4.60;;;19.50;48.00;;;;;;20820;6812;120977;-77
2023/06/08 03:02:27;;;;;;;5.13;4.83;;;19.50;47.30;;;;;;20576;6812;336439;-77
2023/06/08 03:04:52;;;;;;;5.78;5.37;;;19.60;47.90;;;;;;20606;6812;309026;-77
2023/06/08 03:07:17;;;;;;;5.80;5.50;;;19.90;47.40;;;;;;20612;6810;295419;-77
2023/06/08 03:09:43;;;;;;;5.45;5.05;;;20.20;47.20;;;;;;20599;6811;340332;-77
2023/06/08 03:12:13;;;;;;;5.17;4.87;;;20.10;47.00;;;;;;20808;6811;117098;-77
2023/06/08 03:14:41;;;;;;;5.57;5.20;;;20.00;46.90;;;;;;20601;6812;280247;-77
2023/06/08 03:17:07;;;;;;;5.87;5.47;;;20.10;47.30;;;;;;20619;6812;277833;-77
2023/06/08 03:19:32;;;;;;;5.83;5.50;;;20.20;47.00;;;;;;20608;6812;305017;-76
2023/06/08 03:22:02;;;;;;;5.70;5.30;;;20.30;46.60;;;;;;20614;6812;336468;-76
2023/06/08 03:24:31;;;;;;;5.33;5.10;;;20.40;46.50;;;;;;20593;6812;307541;-77
2023/06/08 03:26:55;;;;;;;5.85;5.55;;;20.40;46.30;;;;;;20607;6812;315222;-77
2023/06/08 03:29:21;;;;;;;5.40;5.10;;;20.50;46.30;;;;;;20828;6812;118128;-77
2023/06/08 03:31:46;;;;;;;5.68;5.07;;;20.10;46.40;;;;;;20608;6812;277997;-77
2023/06/08 03:34:13;;;;;;;4.80;4.57;;;19.80;46.90;;;;;;20790;6812;117596;-77
2023/06/08 03:36:39;;;;;;;5.10;4.80;;;19.80;48.10;;;;;;20611;6812;307531;-77
2023/06/08 03:39:05;;;;;;;5.30;5.00;;;19.80;47.40;;;;;;20813;6812;117519;-77
2023/06/08 03:41:30;;;;;;;4.55;4.30;;;19.60;47.40;;;;;;20823;6812;118639;-77
2023/06/08 03:43:56;;;;;;;4.43;4.22;;;19.30;47.80;;;;;;20816;6812;117499;-77
2023/06/08 03:46:21;;;;;;;5.55;5.10;;;19.00;48.10;;;;;;20565;6812;406098;-78
2023/06/08 03:48:50;;;;;;;5.55;5.25;;;19.20;48.50;;;;;;20602;6812;306534;-77
2023/06/08 03:51:12;;;;;;;5.47;5.00;;;19.50;48.10;;;;;;20790;6812;117009;-77
2023/06/08 03:53:39;;;;;;;5.30;5.00;;;19.10;48.20;;;;;;20818;6812;118189;-77
2023/06/08 03:56:05;;;;;;;5.53;5.23;;;19.10;48.20;;;;;;20585;6812;283616;-78
2023/06/08 03:58:30;;;;;;;5.20;4.70;;;19.30;48.80;;;;;;20802;6812;119032;-78
2023/06/08 04:00:57;;;;;;;5.90;5.40;;;19.20;48.40;;;;;;20605;6812;307379;-77
2023/06/08 04:03:26;;;;;;;5.67;5.33;;;19.70;48.10;;;;;;20601;6812;311496;-77
2023/06/08 04:05:51;;;;;;;5.70;5.40;;;19.70;48.00;;;;;;20601;6812;307478;-77
2023/06/08 04:08:17;;;;;;;5.97;5.37;;;19.90;47.60;;;;;;20801;6812;120705;-75
2023/06/08 04:10:44;;;;;;;5.60;5.30;;;19.80;47.60;;;;;;20821;6812;122082;-77
2023/06/08 04:13:10;;;;;;;5.72;5.35;;;19.40;47.90;;;;;;20607;6812;307023;-77
2023/06/08 04:15:35;;;;;;;5.90;5.40;;;19.50;48.50;;;;;;20601;6812;307358;-76
2023/06/08 04:18:08;;;;;;;6.37;5.40;;;19.70;48.10;;;;;;20633;6810;305419;-77
2023/06/08 04:20:31;;;;;;;5.30;4.90;;;19.80;47.60;;;;;;20758;6811;117172;-76
2023/06/08 04:22:56;;;;;;;5.77;5.47;;;19.60;47.80;;;;;;20597;6811;311396;-76
2023/06/08 04:25:24;;;;;;;5.80;5.50;;;19.50;48.10;;;;;;20591;6812;306094;-76
2023/06/08 04:27:48;;;;;;;5.33;5.00;;;19.70;47.90;;;;;;20813;6812;117159;-76
2023/06/08 04:30:13;;;;;;;6.10;5.50;;;19.50;48.00;;;;;;20594;6812;278850;-77
2023/06/08 04:32:39;;;;;;;5.07;4.87;;;19.50;48.20;;;;;;20818;6812;118023;-76
2023/06/08 04:35:04;;;;;;;5.90;5.50;;;19.30;48.30;;;;;;20611;6812;307819;-76
2023/06/08 04:37:30;;;;;;;5.47;5.17;;;19.30;48.60;;;;;;20828;6812;119257;-76
2023/06/08 04:39:56;;;;;;;5.40;5.00;;;19.20;48.60;;;;;;20854;6812;116304;-76
2023/06/08 04:42:23;;;;;;;6.05;5.65;;;18.90;48.90;;;;;;20607;6812;309837;-76
2023/06/08 04:44:47;;;;;;;5.70;5.40;;;19.10;49.20;;;;;;20887;6812;67232;-79
2023/06/08 04:47:14;;;;;;;6.12;5.72;;;19.10;49.10;;;;;;20650;6812;277069;-76
2023/06/08 04:49:39;;;;;;;6.27;5.97;;;19.60;48.50;;;;;;20634;6812;283298;-77
2023/06/08 04:52:06;;;;;;;5.35;5.05;;;19.90;48.10;;;;;;20527;6812;306973;-76
2023/06/08 04:54:31;;;;;;;5.50;5.17;;;19.90;48.10;;;;;;20797;6812;117647;-77
2023/06/08 04:56:58;;;;;;;5.70;5.28;;;19.60;48.50;;;;;;20791;6812;118447;-76
2023/06/08 04:59:23;;;;;;;5.37;4.97;;;19.50;48.40;;;;;;20801;6812;119305;-76
2023/06/08 05:01:48;;;;;;;5.80;5.40;;;19.40;48.70;;;;;;20589;6812;307873;-76
2023/06/08 05:04:15;;;;;;;5.75;5.00;;;19.70;49.10;;;;;;20778;6812;117826;-76
2023/06/08 05:06:40;;;;;;;5.90;5.50;;;19.60;48.60;;;;;;20601;6812;308939;-76
2023/06/08 05:09:07;;;;;;;5.57;5.27;;;19.90;48.60;;;;;;20592;6812;285119;-77
2023/06/08 05:11:32;;;;;;;5.50;5.20;;;20.30;48.00;;;;;;20805;6812;117477;-76
2023/06/08 05:13:58;;;;;;;5.57;5.13;;;20.30;47.80;;;;;;20794;6812;118567;-77
2023/06/08 05:16:23;;;;;;;5.63;5.17;;;20.20;48.00;;;;;;20769;6812;122039;-77
2023/06/08 05:18:49;;;;;;;5.80;5.50;;;20.10;48.10;;;;;;20575;6812;304497;-77
2023/06/08 05:21:15;;;;;;;5.70;5.40;;;20.40;47.70;;;;;;20784;6812;118294;-76
2023/06/08 05:23:40;;;;;;;5.87;5.40;;;20.50;47.50;;;;;;20770;6812;120835;-76
2023/06/08 05:26:06;;;;;;;5.20;4.90;;;20.40;47.50;;;;;;20758;6812;118146;-77
2023/06/08 05:28:31;;;;;;;5.10;4.83;;;20.40;47.60;;;;;;20756;6812;119288;-77
2023/06/08 05:30:57;;;;;;;5.82;5.35;;;20.40;47.60;;;;;;20550;6810;280513;-76
2023/06/08 05:33:23;;;;;;;5.73;5.23;;;20.70;47.40;;;;;;20557;6811;335970;-76
2023/06/08 05:35:48;;;;;;;5.37;5.00;;;21.10;46.60;;;;;;20773;6811;116945;-77
2023/06/08 05:38:14;;;;;;;5.50;5.20;;;21.20;46.50;;;;;;20560;6812;307385;-77
2023/06/08 05:40:40;;;;;;;5.12;4.78;;;21.40;46.70;;;;;;20814;6812;117002;-77
2023/06/08 05:43:06;;;;;;;4.83;4.63;;;21.30;47.00;;;;;;20810;6812;118112;-79
2023/06/08 05:45:32;;;;;;;5.37;5.07;;;21.30;47.00;;;;;;20585;6812;307782;-80
2023/06/08 05:47:58;;;;;;;5.13;4.83;;;21.50;47.20;;;;;;20809;6812;116964;-78
2023/06/08 05:50:23;;;;;;;5.57;5.27;;;21.60;47.10;;;;;;20578;6812;309110;-74
2023/06/08 05:52:49;;;;;;;5.60;5.20;;;21.80;46.60;;;;;;20591;6812;336306;-77
2023/06/08 05:55:14;;;;;;;5.60;5.30;;;22.20;45.60;;;;;;20585;6812;277936;-77
2023/06/08 05:57:40;;;;;;;5.27;4.97;;;22.60;44.80;;;;;;20813;6812;116908;-78
2023/06/08 06:00:09;;;;;;;5.40;5.10;;;22.60;44.90;;;;;;20578;6812;281185;-78
2023/06/08 06:02:31;;;;;;;4.75;4.55;;;22.80;44.20;;;;;;20593;6812;316771;-78
2023/06/08 06:04:57;;;;;;;5.50;5.10;;;23.20;43.80;;;;;;20615;6812;278317;-78
2023/06/08 06:07:23;;;;;;;4.15;3.97;;;23.50;42.80;;;;;;20817;6812;119012;-76
2023/06/08 06:09:48;;;;;;;4.83;4.53;;;23.60;43.40;;;;;;20825;6812;116925;-79
2023/06/08 06:12:14;;;;;;;4.90;4.60;;;23.70;44.10;;;;;;20591;6812;277341;-78
2023/06/08 06:14:40;;;;;;;5.00;4.70;;;24.30;41.80;;;;;;20602;6812;336515;-82
2023/06/08 06:17:05;;;;;;;4.77;4.37;;;25.20;40.90;;;;;;20821;6812;117438;-78
2023/06/08 06:19:36;;;;;;;4.90;4.70;;;25.70;41.00;;;;;;20582;6812;303829;-78
2023/06/08 06:21:56;;;;;;;4.73;4.53;;;26.40;38.10;;;;;;20602;6812;277536;-81
2023/06/08 06:24:23;;;;;;;4.90;4.60;;;27.90;35.50;;;;;;20555;6812;446417;-84
2023/06/08 06:26:49;;;;;;;4.60;4.40;;;28.50;35.40;;;;;;20596;6812;299687;-77
2023/06/08 06:29:15;;;;;;;5.00;4.70;;;28.50;35.20;;;;;;20600;6812;311454;-77
2023/06/08 06:31:41;;;;;;;4.50;4.28;;;29.00;34.40;;;;;;20809;6812;117058;-79
2023/06/08 06:34:08;;;;;;;4.60;4.30;;;28.50;35.30;;;;;;20726;6812;117612;-77
2023/06/08 06:36:33;;;;;;;4.87;4.57;;;28.40;35.60;;;;;;20755;6812;121458;-79
2023/06/08 06:38:59;;;;;;;4.27;3.90;;;28.20;36.30;;;;;;20753;6812;121038;-81
2023/06/08 06:41:25;;;;;;;4.20;4.00;;;28.00;36.70;;;;;;20538;6810;279985;-82
2023/06/08 06:43:50;;;;;;;5.10;4.73;;;28.10;35.10;;;;;;20536;6811;311407;-79
2023/06/08 06:46:19;;;;;;;14.27;4.85;;;28.40;34.10;;;;;;20554;6811;309899;-77
2023/06/08 06:48:41;;;;;;;4.10;3.90;;;28.60;34.10;;;;;;20570;6812;280819;-82
2023/06/08 06:51:07;;;;;;;4.40;4.10;;;28.60;34.40;;;;;;20604;6812;277894;-78
2023/06/08 06:53:33;;;;;;;4.73;4.23;;;28.30;34.60;;;;;;20616;6812;307863;-79
2023/06/08 06:55:59;;;;;;;4.00;3.80;;;27.50;34.90;;;;;;20830;6812;117451;-79
2023/06/08 06:58:25;;;;;;;4.50;4.20;;;27.20;35.10;;;;;;20593;6812;277477;-78
2023/06/08 07:00:51;;;;;;;4.20;3.80;;;27.20;35.10;;;;;;20831;6812;118068;-79
2023/06/08 07:03:16;;;;;;;4.30;4.07;;;26.80;35.70;;;;;;20607;6812;277491;-82
2023/06/08 07:05:42;;;;;;;4.20;4.00;;;26.60;35.80;;;;;;20624;6812;307582;-79
2023/06/08 07:08:07;;;;;;;4.40;4.00;;;26.70;36.00;;;;;;20796;6812;117145;-79
2023/06/08 07:10:33;;;;;;;4.30;4.00;;;26.50;36.40;;;;;;20581;6812;305023;-79
2023/06/08 07:12:59;;;;;;;4.00;3.80;;;26.30;37.00;;;;;;20816;6812;117845;-79
2023/06/08 07:15:27;;;;;;;4.50;4.10;;;26.40;37.60;;;;;;20598;6812;278679;-79
2023/06/08 07:17:51;;;;;;;4.07;3.87;;;26.30;37.50;;;;;;20592;6812;308021;-82
2023/06/08 07:20:18;;;;;;;4.20;3.90;;;26.30;37.80;;;;;;20795;6812;118000;-80
2023/06/08 07:22:43;;;;;;;4.13;3.93;;;26.30;37.70;;;;;;20807;6812;118249;-81
2023/06/08 07:25:09;;;;;;;4.80;4.35;;;26.00;38.50;;;;;;20820;6812;117490;-83
2023/06/08 07:27:35;;;;;;;4.60;4.30;;;25.20;40.10;;;;;;20816;6812;117473;-77
2023/06/08 07:30:01;;;;;;;4.83;4.53;;;25.10;40.00;;;;;;20610;6812;307060;-76
2023/06/08 07:32:28;;;;;;;4.95;4.43;;;25.20;41.10;;;;;;20579;6812;280944;-83
2023/06/08 07:34:52;;;;;;;4.70;4.30;;;25.50;40.80;;;;;;20822;6812;118612;-78
2023/06/08 07:37:18;;;;;;;4.95;4.55;;;25.50;40.70;;;;;;20606;6812;282856;-82
2023/06/08 07:39:45;;;;;;;4.57;4.27;;;25.90;39.60;;;;;;20603;6812;307418;-78
2023/06/08 07:42:10;;;;;;;5.07;4.67;;;26.40;38.30;;;;;;20591;6812;277865;-78
2023/06/08 07:44:36;;;;;;;5.00;4.57;;;26.90;37.40;;;;;;20588;6812;340891;-81
2023/06/08 07:47:02;;;;;;;4.30;4.10;;;27.50;37.00;;;;;;20799;6812;120873;-79
2023/06/08 07:49:28;;;;;;;5.80;4.20;;;27.50;36.70;;;;;;20605;6812;277960;-86
2023/06/08 07:51:54;;;;;;;4.40;3.97;;;27.80;36.70;;;;;;20820;6812;117291;-77
2023/06/08 07:54:19;;;;;;;4.20;3.90;;;28.00;36.70;;;;;;20604;6810;276743;-78
2023/06/08 07:56:48;;;;;;;4.30;4.00;;;28.30;34.70;;;;;;20607;6811;309150;-77
2023/06/08 07:59:14;;;;;;;4.18;3.97;;;28.80;34.20;;;;;;20600;6812;307328;-77
2023/06/08 08:01:40;;;;;;;3.62;3.42;;;29.30;33.50;;;;;;20829;6812;117064;-76
2023/06/08 08:04:06;;;;;;;4.07;3.77;;;29.20;33.40;;;;;;20790;6812;149260;-77
2023/06/08 08:06:34;;;;;;;4.23;3.93;;;29.10;33.40;;;;;;20816;6812;117115;-78
2023/06/08 08:09:00;;;;;;;3.72;3.53;;;29.00;33.50;;;;;;20608;6812;336975;-75
2023/06/08 08:11:26;;;;;;;3.33;3.12;;;29.30;32.30;;;;;;20819;6812;117139;-76
2023/06/08 08:13:51;;;;;;;3.50;3.30;;;29.40;32.20;;;;;;20823;6812;117512;-78
2023/06/08 08:16:18;;;;;;;4.10;3.60;;;29.50;32.50;;;;;;20588;6812;280923;-76
2023/06/08 08:18:43;;;;;;;3.83;3.63;;;29.80;31.30;;;;;;20617;6812;307691;-77
2023/06/08 08:21:09;;;;;;;3.72;3.53;;;30.30;31.20;;;;;;20607;6812;334541;-76
2023/06/08 08:23:34;;;;;;;3.33;3.17;;;30.80;30.10;;;;;;20833;6812;118839;-76
2023/06/08 08:26:00;;;;;;;3.53;3.37;;;30.80;30.40;;;;;;20834;6812;117729;-76
2023/06/08 08:28:26;;;;;;;3.63;3.33;;;30.70;30.10;;;;;;20811;6812;118303;-76
2023/06/08 08:30:51;;;;;;;3.53;3.37;;;30.50;30.20;;;;;;20824;6812;119519;-76
2023/06/08 08:46:55;;;;;;;3.50;3.20;;;32.40;28.10;;;;;;21261;6549;67284;-76
2023/06/08 08:49:21;;;;;;;3.80;3.50;;;32.20;28.30;;;;;;20777;6828;117873;-76
2023/06/08 08:51:49;;;;;;;3.20;3.00;;;31.80;28.70;;;;;;20770;6828;120271;-77
2023/06/08 08:54:15;;;;;;;13.90;12.70;;;31.60;29.20;;;;;;20746;6818;118279;-80
2023/06/08 08:56:40;;;;;;;4.00;3.70;;;31.60;29.40;;;;;;20343;6901;309809;-76
2023/06/08 08:59:05;;;;;;;3.70;3.40;;;31.90;28.80;;;;;;20354;6901;311649;-76
2023/06/08 09:01:32;;;;;;;3.37;3.17;;;32.30;27.30;;;;;;20590;6891;117552;-76
2023/06/08 09:03:57;;;;;;;3.73;3.53;;;32.20;27.60;;;;;;20588;6882;117536;-78
2023/06/08 09:06:22;;;;;;;3.60;3.37;;;32.00;27.90;;;;;;20518;6883;122394;-76
2023/06/08 09:08:49;;;;;;;3.70;3.40;;;31.70;28.10;;;;;;20577;6899;116859;-77
2023/06/08 09:11:14;;;;;;;3.50;3.20;;;31.50;28.20;;;;;;20585;6899;117986;-76
2023/06/08 09:13:41;;;;;;;3.70;3.50;;;31.40;28.20;;;;;;20550;6899;121483;-77
2023/06/08 09:16:12;;;;;;;3.90;3.60;;;31.40;27.90;;;;;;20300;6884;308690;-77
2023/06/08 09:18:34;;;;;;;4.07;3.70;;;31.60;27.00;;;;;;20550;6884;116788;-77
2023/06/08 09:21:00;;;;;;;4.03;3.73;;;31.80;27.30;;;;;;20616;6884;123434;-77
2023/06/08 09:23:26;;;;;;;4.07;3.87;;;31.80;27.30;;;;;;20313;6884;326239;-77
2023/06/08 09:25:52;;;;;;;4.37;4.03;;;32.10;27.70;;;;;;20573;6899;120631;-77
2023/06/08 09:28:18;;;;;;;4.53;3.63;;;32.00;27.40;;;;;;20539;6899;117466;-78
2023/06/08 09:30:43;;;;;;;4.10;3.80;;;32.00;27.60;;;;;;20356;6899;341570;-77
2023/06/08 09:33:23;;;;;;;3.37;3.27;;;32.20;27.40;;;;;;20491;6899;117614;-77
2023/06/08 09:35:47;;;;;;;4.00;3.70;;;32.30;27.40;;;;;;20309;6899;309445;-77
2023/06/08 09:38:20;;;;;;;3.97;3.67;;;32.50;26.70;;;;;;20466;6901;117521;-77
2023/06/08 09:40:45;;;;;;;4.70;4.40;;;32.60;26.60;;;;;;20303;6898;280803;-77
2023/06/08 09:43:11;;;;;;;4.60;4.40;;;32.80;26.20;;;;;;20331;6898;290423;-78
2023/06/08 09:45:44;;;;;;;4.43;4.03;;;33.20;25.30;;;;;;20338;6898;342024;-77
2023/06/08 09:48:10;;;;;;;6.13;5.70;;;33.40;25.00;;;;;;20309;6898;310155;-78
2023/06/08 09:50:34;;;;;;;4.43;4.13;;;33.50;24.40;;;;;;20366;6880;327787;-78
2023/06/08 09:53:02;;;;;;;4.32;4.00;;;33.70;24.40;;;;;;20448;6865;284907;-77
2023/06/08 09:55:26;;;;;;;5.97;5.47;;;33.70;24.90;;;;;;20659;6865;117606;-78
2023/06/08 09:57:54;;;;;;;4.43;3.97;;;33.30;24.90;;;;;;20659;6863;122381;-77
2023/06/08 10:00:20;;;;;;;4.47;4.27;;;33.30;24.90;;;;;;20429;6864;310084;-79
2023/06/08 10:02:59;;;;;;;4.50;4.20;;;33.60;23.50;;;;;;20442;6864;338339;-78
2023/06/08 10:05:25;;;;;;;4.50;4.25;;;33.60;23.50;;;;;;20443;6864;294079;-78
2023/06/08 10:07:50;;;;;;;4.37;4.10;;;33.80;23.30;;;;;;20431;6864;298566;-77
2023/06/08 10:10:20;;;;;;;4.03;3.83;;;33.80;23.70;;;;;;20624;6864;119594;-79
2023/06/08 10:12:46;;;;;;;4.20;4.00;;;33.80;23.10;;;;;;20444;6864;339446;-79
2023/06/08 10:15:11;;;;;;;3.80;3.70;;;33.70;23.60;;;;;;20677;6861;117270;-78
2023/06/08 10:17:37;;;;;;;4.37;4.10;;;33.60;23.80;;;;;;20464;6861;279010;-78
2023/06/08 10:20:05;;;;;;;4.47;3.95;;;33.60;24.40;;;;;;20461;6861;295084;-79
2023/06/08 10:22:30;;;;;;;4.70;4.30;;;33.80;22.80;;;;;;20450;6861;308132;-76
2023/06/08 10:24:55;;;;;;;4.30;4.10;;;33.90;22.80;;;;;;20455;6861;308724;-77
2023/06/08 10:27:23;;;;;;;4.35;4.10;;;33.90;22.10;;;;;;20453;6861;309070;-78
2023/06/08 10:29:58;;;;;;;4.07;3.77;;;33.90;23.00;;;;;;20654;6861;117624;-81
2023/06/08 10:32:39;;;;;;;4.40;4.10;;;33.50;23.30;;;;;;20647;6861;117746;-76
2023/06/08 10:35:06;;;;;;;8.33;4.53;;;32.30;24.40;;;;;;20650;6861;117245;-81
2023/06/08 10:37:29;;;;;;;4.17;3.97;;;32.30;24.40;;;;;;20642;6861;117332;-77
2023/06/08 10:39:54;;;;;;;4.50;4.20;;;31.80;24.90;;;;;;20665;6861;117296;-76
2023/06/08 10:42:21;;;;;;;4.70;4.00;;;31.40;25.10;;;;;;20630;6861;121551;-78
2023/06/08 10:44:53;;;;;;;4.93;4.62;;;31.10;25.40;;;;;;20513;6861;277955;-83
2023/06/08 10:47:18;;;;;;;4.10;3.90;;;31.00;25.80;;;;;;20694;6861;121407;-85
2023/06/08 10:49:44;;;;;;;4.80;4.50;;;30.80;25.90;;;;;;20713;6861;117407;-86
2023/06/08 10:52:10;;;;;;;4.63;4.37;;;30.60;26.20;;;;;;20736;6861;117119;-88
2023/06/08 10:54:56;;;;;;;4.70;4.40;;;30.30;26.30;;;;;;20510;6861;308096;-83
2023/06/08 10:57:37;;;;;;;4.37;4.17;;;30.30;26.20;;;;;;20723;6861;116765;-87
2023/06/08 11:00:30;;;;;;;4.53;4.23;;;30.10;26.40;;;;;;20708;6861;118334;-84
2023/06/08 11:02:54;;;;;;;4.20;4.00;;;29.80;26.80;;;;;;20490;6861;118744;-77
2023/06/08 11:05:20;;;;;;;4.90;4.60;;;29.50;27.00;;;;;;20437;6861;278971;-78
2023/06/08 11:07:45;;;;;;;5.15;4.75;;;29.70;27.40;;;;;;20454;6859;344309;-78
2023/06/08 11:10:11;;;;;;;4.32;4.12;;;30.10;27.30;;;;;;20650;6860;119931;-77
2023/06/08 11:12:37;;;;;;;4.93;4.73;;;30.00;27.30;;;;;;20670;6860;117857;-79
2023/06/08 11:15:02;;;;;;;4.75;4.50;;;29.90;27.70;;;;;;20673;6860;117340;-77
2023/06/08 11:17:30;;;;;;;5.23;4.83;;;29.80;27.80;;;;;;20629;6860;117646;-79
2023/06/08 11:19:55;;;;;;;4.73;4.43;;;29.70;27.90;;;;;;20671;6860;116360;-80
2023/06/08 11:22:24;;;;;;;4.85;4.65;;;29.60;28.10;;;;;;20444;6860;308149;-79
2023/06/08 11:24:51;;;;;;;4.83;4.63;;;30.00;28.30;;;;;;20679;6860;117285;-78
2023/06/08 11:27:17;;;;;;;5.23;4.73;;;30.00;27.90;;;;;;20682;6860;117862;-78
2023/06/08 11:29:42;;;;;;;5.13;4.73;;;30.00;28.00;;;;;;20467;6861;279825;-79
2023/06/08 11:32:10;;;;;;;4.03;3.80;;;30.20;28.80;;;;;;20656;6861;122609;-78
2023/06/08 11:34:45;;;;;;;4.20;3.90;;;30.30;28.80;;;;;;20681;6861;118101;-78
2023/06/08 11:37:13;;;;;;;4.43;4.23;;;30.10;29.10;;;;;;20634;6861;117346;-78
2023/06/08 11:39:42;;;;;;;3.90;3.70;;;29.80;29.20;;;;;;20644;6861;117926;-78
2023/06/08 11:42:08;;;;;;;4.83;4.43;;;29.60;29.50;;;;;;20427;6861;309549;-81
2023/06/08 11:44:34;;;;;;;4.87;4.47;;;29.80;30.10;;;;;;20457;6861;298490;-77
2023/06/08 11:47:01;;;;;;;4.53;4.23;;;30.10;29.90;;;;;;20655;6861;118652;-77
2023/06/08 11:49:28;;;;;;;4.40;4.00;;;30.10;29.80;;;;;;20670;6861;117859;-76
2023/06/08 11:51:54;;;;;;;4.93;4.53;;;29.80;30.00;;;;;;20562;6861;117411;-81
2023/06/08 11:54:21;;;;;;;4.37;4.18;;;29.60;30.50;;;;;;20435;6861;279024;-81
2023/06/08 11:56:45;;;;;;;4.30;3.90;;;29.60;30.40;;;;;;20659;6861;117776;-81
2023/06/08 11:59:11;;;;;;;8.18;3.55;;;29.40;30.00;;;;;;20681;6861;117390;-81
2023/06/08 12:01:40;;;;;;;3.58;3.28;;;29.10;29.70;;;;;;20689;6861;117711;-82
2023/06/08 12:04:03;;;;;;;4.00;3.10;;;28.70;29.40;;;;;;20627;6861;116882;-82
2023/06/08 12:06:30;;;;;;;3.67;3.47;;;28.40;29.20;;;;;;20649;6861;116877;-81
2023/06/08 12:08:54;;;;;;;3.83;3.53;;;28.00;29.10;;;;;;20672;6861;123817;-80
2023/06/08 12:11:21;;;;;;;3.50;3.30;;;27.80;29.70;;;;;;20458;6861;300947;-81
2023/06/08 12:13:46;;;;;;;3.80;3.60;;;27.90;28.50;;;;;;20443;6861;298576;-80
2023/06/08 12:16:13;;;;;;;3.80;3.60;;;28.10;28.60;;;;;;20642;6861;118744;-81
2023/06/08 12:18:39;;;;;;;3.97;3.67;;;28.10;28.50;;;;;;20475;6861;307759;-84
2023/06/08 12:21:04;;;;;;;3.73;3.53;;;28.20;28.30;;;;;;20476;6859;313288;-82
2023/06/08 12:23:30;;;;;;;3.50;3.30;;;28.40;28.10;;;;;;20465;6860;313553;-82
2023/06/08 12:25:56;;;;;;;3.70;3.37;;;28.70;28.40;;;;;;20472;6860;307882;-83
2023/06/08 12:28:25;;;;;;;4.05;3.85;;;28.90;28.40;;;;;;20457;6860;279900;-81
2023/06/08 12:30:51;;;;;;;3.57;3.37;;;28.80;28.50;;;;;;20675;6860;117341;-82
2023/06/08 12:33:21;;;;;;;3.97;3.70;;;28.80;28.50;;;;;;20685;6860;116993;-83
2023/06/08 12:35:46;;;;;;;3.93;3.63;;;28.40;29.40;;;;;;20679;6860;117753;-81
2023/06/08 12:38:12;;;;;;;5.03;3.83;;;28.40;29.40;;;;;;20643;6860;121217;-76
2023/06/08 12:40:38;;;;;;;3.67;3.37;;;28.20;29.30;;;;;;20672;6861;117672;-78
2023/06/08 12:43:04;;;;;;;4.40;3.90;;;28.20;29.30;;;;;;20452;6861;279915;-76
2023/06/08 12:45:29;;;;;;;3.90;3.70;;;28.50;28.00;;;;;;20667;6861;117891;-74